createdAt,value
2017-07-15T00:00:12.997Z,0
2017-07-15T00:01:12.838Z,0
2017-07-15T00:02:12.799Z,0
2017-07-15T00:03:12.952Z,0
2017-07-15T00:04:12.901Z,0
2017-07-15T00:05:12.955Z,0
2017-07-15T00:06:12.926Z,0
2017-07-15T00:07:12.915Z,0
2017-07-15T00:08:12.903Z,0
2017-07-15T00:09:12.957Z,0
2017-07-15T00:10:13.006Z,0
2017-07-15T00:11:13.131Z,0
2017-07-15T00:12:13.048Z,0
2017-07-15T00:13:13.079Z,0
2017-07-15T00:14:13.089Z,0
2017-07-15T00:15:13.156Z,0
2017-07-15T00:16:13.507Z,0
2017-07-15T00:17:13.243Z,0
2017-07-15T00:18:13.249Z,0
2017-07-15T00:19:13.329Z,0
2017-07-15T00:20:13.445Z,0
2017-07-15T00:21:13.527Z,0
2017-07-15T00:22:13.356Z,0
2017-07-15T00:23:13.458Z,0
2017-07-15T00:24:13.422Z,0
2017-07-15T00:25:13.491Z,0
2017-07-15T00:26:13.624Z,0
2017-07-15T00:27:13.729Z,0
2017-07-15T00:28:13.955Z,0
2017-07-15T00:29:13.701Z,0
2017-07-15T00:30:13.687Z,0
2017-07-15T00:31:13.934Z,0
2017-07-15T00:32:13.712Z,0
2017-07-15T00:33:13.901Z,0
2017-07-15T00:34:14.117Z,0
2017-07-15T00:35:14.027Z,0
2017-07-15T00:36:14.338Z,0
2017-07-15T00:37:13.981Z,0
2017-07-15T00:38:14.062Z,0
2017-07-15T00:39:13.937Z,0
2017-07-15T00:40:14.254Z,0
2017-07-15T00:41:14.027Z,0
2017-07-15T00:42:14.124Z,0
2017-07-15T00:43:14.205Z,0
2017-07-15T00:44:14.428Z,0
2017-07-15T00:45:14.358Z,0
2017-07-15T00:46:14.149Z,0
2017-07-15T00:47:14.198Z,0
2017-07-15T00:48:14.578Z,0
2017-07-15T00:49:14.315Z,0
2017-07-15T00:50:14.478Z,0
2017-07-15T00:51:14.599Z,0
2017-07-15T00:52:14.558Z,0
2017-07-15T00:53:14.371Z,0
2017-07-15T00:54:14.414Z,0
2017-07-15T00:55:14.489Z,0
2017-07-15T00:56:14.469Z,0
2017-07-15T00:57:14.529Z,0
2017-07-15T00:58:14.562Z,0
2017-07-15T00:59:14.597Z,0
2017-07-15T01:00:14.658Z,0
2017-07-15T01:01:14.669Z,0
2017-07-15T01:02:14.699Z,0
2017-07-15T01:03:14.724Z,0
2017-07-15T01:04:14.796Z,0
2017-07-15T01:05:14.989Z,0
2017-07-15T01:06:14.803Z,0
2017-07-15T01:07:14.825Z,0
2017-07-15T01:08:15.099Z,0
2017-07-15T01:09:14.909Z,0
2017-07-15T01:10:15.140Z,0
2017-07-15T01:11:14.968Z,0
2017-07-15T01:12:14.999Z,0
2017-07-15T01:13:15.063Z,0
2017-07-15T01:14:15.085Z,0
2017-07-15T01:15:15.116Z,0
2017-07-15T01:16:15.150Z,0
2017-07-15T01:17:15.184Z,0
2017-07-15T01:18:15.231Z,0
2017-07-15T01:19:15.246Z,0
2017-07-15T01:20:15.345Z,0
2017-07-15T01:21:15.302Z,0
2017-07-15T01:22:15.346Z,0
2017-07-15T01:23:15.527Z,0
2017-07-15T01:24:15.388Z,0
2017-07-15T01:25:15.465Z,0
2017-07-15T01:26:15.475Z,0
2017-07-15T01:27:15.571Z,0
2017-07-15T01:28:15.558Z,0
2017-07-15T01:29:15.620Z,0
2017-07-15T01:30:15.607Z,0
2017-07-15T01:31:15.735Z,0
2017-07-15T01:32:15.749Z,0
2017-07-15T01:33:15.685Z,0
2017-07-15T01:34:15.948Z,0
2017-07-15T01:35:15.774Z,0
2017-07-15T01:36:15.783Z,0
2017-07-15T01:37:15.873Z,0
2017-07-15T01:38:15.854Z,0
2017-07-15T01:39:15.880Z,0
2017-07-15T01:40:15.939Z,0
2017-07-15T01:41:15.978Z,0
2017-07-15T01:42:16.008Z,0
2017-07-15T01:43:16.069Z,0
2017-07-15T01:44:16.073Z,0
2017-07-15T01:45:16.157Z,0
2017-07-15T01:46:16.117Z,0
2017-07-15T01:47:16.154Z,0
2017-07-15T01:48:16.198Z,0
2017-07-15T01:49:16.243Z,0
2017-07-15T01:50:16.245Z,0
2017-07-15T01:51:16.302Z,0
2017-07-15T01:52:16.378Z,0
2017-07-15T01:53:16.377Z,0
2017-07-15T01:54:16.444Z,0
2017-07-15T01:55:16.424Z,0
2017-07-15T01:56:16.422Z,0
2017-07-15T01:57:16.488Z,0
2017-07-15T01:58:16.544Z,0
2017-07-15T01:59:16.557Z,0
2017-07-15T02:00:16.852Z,0
2017-07-15T02:01:16.698Z,0
2017-07-15T02:02:16.667Z,0
2017-07-15T02:03:16.706Z,0
2017-07-15T02:04:16.742Z,0
2017-07-15T02:05:16.755Z,0
2017-07-15T02:06:16.806Z,0
2017-07-15T02:07:16.830Z,0
2017-07-15T02:08:16.924Z,0
2017-07-15T02:09:16.887Z,0
2017-07-15T02:10:17.006Z,0
2017-07-15T02:11:16.925Z,0
2017-07-15T02:12:17.085Z,0
2017-07-15T02:13:17.009Z,0
2017-07-15T02:14:17.061Z,0
2017-07-15T02:15:17.222Z,0
2017-07-15T02:16:17.115Z,0
2017-07-15T02:17:17.181Z,0
2017-07-15T02:18:17.174Z,0
2017-07-15T02:19:17.209Z,0
2017-07-15T02:20:17.340Z,0
2017-07-15T02:21:17.294Z,0
2017-07-15T02:22:17.307Z,0
2017-07-15T02:23:17.343Z,0
2017-07-15T02:24:17.398Z,0
2017-07-15T02:25:17.494Z,0
2017-07-15T02:26:17.454Z,0
2017-07-15T02:27:17.476Z,0
2017-07-15T02:28:17.510Z,0
2017-07-15T02:29:17.798Z,0
2017-07-15T02:30:17.886Z,0
2017-07-15T02:31:17.612Z,0
2017-07-15T02:32:17.667Z,0
2017-07-15T02:33:17.657Z,0
2017-07-15T02:34:17.741Z,0
2017-07-15T02:35:18.128Z,0
2017-07-15T02:36:17.764Z,0
2017-07-15T02:37:17.801Z,0
2017-07-15T02:38:17.893Z,0
2017-07-15T02:39:17.848Z,0
2017-07-15T02:40:17.889Z,0
2017-07-15T02:41:17.952Z,0
2017-07-15T02:42:17.967Z,0
2017-07-15T02:43:17.964Z,0
2017-07-15T02:44:18.019Z,0
2017-07-15T02:45:18.055Z,0
2017-07-15T02:46:18.077Z,0
2017-07-15T02:47:18.124Z,0
2017-07-15T02:48:18.137Z,0
2017-07-15T02:49:18.189Z,0
2017-07-15T02:50:18.212Z,0
2017-07-15T02:51:18.458Z,0
2017-07-15T02:52:18.288Z,0
2017-07-15T02:53:18.337Z,0
2017-07-15T02:54:18.349Z,0
2017-07-15T02:55:18.395Z,0
2017-07-15T02:56:18.523Z,0
2017-07-15T02:57:18.430Z,0
2017-07-15T02:58:18.487Z,0
2017-07-15T02:59:18.520Z,0
2017-07-15T03:00:18.752Z,5
2017-07-15T03:01:19.032Z,5
2017-07-15T03:02:18.675Z,5
2017-07-15T03:03:18.653Z,5
2017-07-15T03:04:18.695Z,5
2017-07-15T03:05:18.730Z,5
2017-07-15T03:06:18.879Z,5
2017-07-15T03:07:18.785Z,5
2017-07-15T03:08:18.802Z,5
2017-07-15T03:09:18.851Z,5
2017-07-15T03:10:18.954Z,5
2017-07-15T03:11:19.302Z,5
2017-07-15T03:12:18.952Z,5
2017-07-15T03:13:18.957Z,10
2017-07-15T03:14:19.022Z,10
2017-07-15T03:15:19.050Z,10
2017-07-15T03:16:19.156Z,10
2017-07-15T03:17:19.093Z,10
2017-07-15T03:18:19.138Z,15
2017-07-15T03:19:19.175Z,15
2017-07-15T03:20:19.266Z,15
2017-07-15T03:21:19.215Z,15
2017-07-15T03:22:19.317Z,15
2017-07-15T03:23:19.412Z,20
2017-07-15T03:24:19.479Z,20
2017-07-15T03:25:19.440Z,20
2017-07-15T03:26:19.458Z,20
2017-07-15T03:27:19.634Z,20
2017-07-15T03:28:19.474Z,25
2017-07-15T03:29:19.850Z,25
2017-07-15T03:30:19.530Z,25
2017-07-15T03:31:19.555Z,30
2017-07-15T03:32:19.654Z,30
2017-07-15T03:33:19.667Z,30
2017-07-15T03:34:19.623Z,35
2017-07-15T03:35:19.696Z,35
2017-07-15T03:36:19.767Z,35
2017-07-15T03:37:19.808Z,35
2017-07-15T03:38:19.805Z,35
2017-07-15T03:39:19.846Z,35
2017-07-15T03:40:19.847Z,35
2017-07-15T03:41:19.926Z,40
2017-07-15T03:42:20.328Z,40
2017-07-15T03:43:19.963Z,45
2017-07-15T03:44:19.984Z,45
2017-07-15T03:45:19.992Z,45
2017-07-15T03:46:20.056Z,45
2017-07-15T03:47:20.227Z,50
2017-07-15T03:48:20.122Z,50
2017-07-15T03:49:20.157Z,55
2017-07-15T03:50:20.161Z,55
2017-07-15T03:51:20.244Z,55
2017-07-15T03:52:20.363Z,60
2017-07-15T03:53:20.254Z,60
2017-07-15T03:54:20.376Z,60
2017-07-15T03:55:20.362Z,65
2017-07-15T03:56:20.378Z,70
2017-07-15T03:57:20.533Z,75
2017-07-15T03:58:20.524Z,80
2017-07-15T03:59:20.487Z,80
2017-07-15T04:00:24.294Z,85
2017-07-15T04:01:24.310Z,85
2017-07-15T04:02:25.204Z,90
2017-07-15T04:03:25.641Z,95
2017-07-15T04:04:24.461Z,100
2017-07-15T04:05:24.421Z,105
2017-07-15T04:06:24.476Z,110
2017-07-15T04:07:24.633Z,115
2017-07-15T04:08:24.533Z,125
2017-07-15T04:09:24.557Z,130
2017-07-15T04:10:24.665Z,140
2017-07-15T04:11:24.656Z,150
2017-07-15T04:12:24.838Z,165
2017-07-15T04:13:24.663Z,175
2017-07-15T04:14:24.724Z,180
2017-07-15T04:15:24.844Z,185
2017-07-15T04:16:24.828Z,185
2017-07-15T04:17:24.861Z,190
2017-07-15T04:18:24.865Z,195
2017-07-15T04:19:24.935Z,200
2017-07-15T04:20:24.894Z,190
2017-07-15T04:21:24.970Z,190
2017-07-15T04:22:25.023Z,190
2017-07-15T04:23:25.060Z,190
2017-07-15T04:24:25.027Z,230
2017-07-15T04:25:25.112Z,260
2017-07-15T04:26:25.145Z,295
2017-07-15T04:27:25.174Z,330
2017-07-15T04:28:25.228Z,410
2017-07-15T04:29:25.271Z,440
2017-07-15T04:30:25.311Z,430
2017-07-15T04:31:25.295Z,460
2017-07-15T04:32:25.326Z,460
2017-07-15T04:33:25.382Z,420
2017-07-15T04:34:25.415Z,315
2017-07-15T04:35:25.436Z,260
2017-07-15T04:36:25.462Z,250
2017-07-15T04:37:25.521Z,255
2017-07-15T04:38:25.550Z,255
2017-07-15T04:39:25.572Z,260
2017-07-15T04:40:25.620Z,260
2017-07-15T04:41:25.632Z,265
2017-07-15T04:42:25.710Z,280
2017-07-15T04:43:25.881Z,290
2017-07-15T04:44:25.717Z,310
2017-07-15T04:45:25.784Z,330
2017-07-15T04:46:25.858Z,330
2017-07-15T04:47:25.807Z,335
2017-07-15T04:48:26.052Z,335
2017-07-15T04:49:25.920Z,325
2017-07-15T04:50:25.909Z,320
2017-07-15T04:51:25.950Z,320
2017-07-15T04:52:26.026Z,335
2017-07-15T04:53:26.150Z,345
2017-07-15T04:54:26.141Z,355
2017-07-15T04:55:26.187Z,370
2017-07-15T04:56:26.190Z,385
2017-07-15T04:57:26.180Z,390
2017-07-15T04:58:26.434Z,400
2017-07-15T04:59:26.770Z,405
2017-07-15T05:00:26.372Z,410
2017-07-15T05:01:26.802Z,410
2017-07-15T05:02:26.383Z,415
2017-07-15T05:03:26.588Z,430
2017-07-15T05:04:26.451Z,445
2017-07-15T05:05:26.479Z,460
2017-07-15T05:06:26.536Z,455
2017-07-15T05:07:26.584Z,460
2017-07-15T05:08:26.637Z,465
2017-07-15T05:09:26.641Z,470
2017-07-15T05:10:26.666Z,480
2017-07-15T05:11:26.749Z,480
2017-07-15T05:12:26.754Z,475
2017-07-15T05:13:26.799Z,485
2017-07-15T05:14:26.833Z,525
2017-07-15T05:15:26.829Z,540
2017-07-15T05:16:26.888Z,550
2017-07-15T05:17:26.908Z,610
2017-07-15T05:18:26.999Z,700
2017-07-15T05:19:27.040Z,655
2017-07-15T05:20:27.091Z,625
2017-07-15T05:21:27.095Z,680
2017-07-15T05:22:27.047Z,600
2017-07-15T05:23:27.083Z,540
2017-07-15T05:24:27.176Z,555
2017-07-15T05:25:27.197Z,530
2017-07-15T05:26:27.270Z,525
2017-07-15T05:27:27.223Z,530
2017-07-15T05:28:27.339Z,540
2017-07-15T05:29:27.389Z,535
2017-07-15T05:30:27.398Z,530
2017-07-15T05:31:27.460Z,525
2017-07-15T05:32:27.447Z,555
2017-07-15T05:33:27.513Z,555
2017-07-15T05:34:27.571Z,530
2017-07-15T05:35:27.584Z,540
2017-07-15T05:36:27.617Z,575
2017-07-15T05:37:27.640Z,795
2017-07-15T05:38:27.704Z,1110
2017-07-15T05:39:27.718Z,1205
2017-07-15T05:40:27.720Z,1120
2017-07-15T05:41:27.824Z,895
2017-07-15T05:42:27.891Z,815
2017-07-15T05:43:27.902Z,945
2017-07-15T05:44:27.869Z,985
2017-07-15T05:45:28.000Z,1060
2017-07-15T05:46:27.981Z,830
2017-07-15T05:47:27.977Z,785
2017-07-15T05:48:28.110Z,1035
2017-07-15T05:49:28.106Z,1005
2017-07-15T05:50:28.200Z,825
2017-07-15T05:51:28.185Z,795
2017-07-15T05:52:28.218Z,860
2017-07-15T05:53:28.307Z,625
2017-07-15T05:54:28.650Z,590
2017-07-15T05:55:28.293Z,610
2017-07-15T05:56:28.405Z,630
2017-07-15T05:57:28.413Z,655
2017-07-15T05:58:28.446Z,665
2017-07-15T05:59:28.661Z,655
2017-07-15T06:00:28.522Z,685
2017-07-15T06:01:28.573Z,705
2017-07-15T06:02:28.602Z,735
2017-07-15T06:03:28.596Z,690
2017-07-15T06:04:28.955Z,665
2017-07-15T06:05:28.662Z,710
2017-07-15T06:06:28.702Z,790
2017-07-15T06:07:28.801Z,795
2017-07-15T06:08:28.806Z,695
2017-07-15T06:09:28.874Z,910
2017-07-15T06:10:28.907Z,855
2017-07-15T06:11:28.964Z,740
2017-07-15T06:12:29.001Z,715
2017-07-15T06:13:28.969Z,715
2017-07-15T06:14:29.100Z,920
2017-07-15T06:15:29.079Z,715
2017-07-15T06:16:29.107Z,715
2017-07-15T06:17:29.150Z,750
2017-07-15T06:18:29.231Z,1120
2017-07-15T06:19:29.202Z,1160
2017-07-15T06:20:29.306Z,905
2017-07-15T06:21:30.422Z,1025
2017-07-15T06:22:30.025Z,820
2017-07-15T06:23:31.266Z,1540
2017-07-15T06:24:31.301Z,1720
2017-07-15T06:25:30.418Z,1625
2017-07-15T06:26:30.557Z,1660
2017-07-15T06:27:30.250Z,1710
2017-07-15T06:28:30.319Z,1400
2017-07-15T06:29:31.957Z,1755
2017-07-15T06:30:34.176Z,1645
2017-07-15T06:31:30.215Z,1155
2017-07-15T06:32:30.462Z,1475
2017-07-15T06:33:30.044Z,1155
2017-07-15T06:34:30.694Z,1775
2017-07-15T06:35:30.567Z,1870
2017-07-15T06:36:30.373Z,1835
2017-07-15T06:37:30.386Z,1865
2017-07-15T06:38:29.996Z,1870
2017-07-15T06:39:29.990Z,1880
2017-07-15T06:40:31.268Z,1810
2017-07-15T06:41:34.578Z,1935
2017-07-15T06:42:31.615Z,1740
2017-07-15T06:43:32.837Z,1955
2017-07-15T06:44:31.816Z,1965
2017-07-15T06:45:31.188Z,1985
2017-07-15T06:46:30.644Z,1970
2017-07-15T06:47:30.576Z,1870
2017-07-15T06:48:31.512Z,980
2017-07-15T06:49:30.432Z,1940
2017-07-15T06:50:31.577Z,1955
2017-07-15T06:51:31.220Z,1890
2017-07-15T06:52:31.398Z,1810
2017-07-15T06:53:31.268Z,1485
2017-07-15T06:54:32.175Z,1960
2017-07-15T06:55:31.125Z,2035
2017-07-15T06:56:31.002Z,2060
2017-07-15T06:57:32.248Z,2035
2017-07-15T06:58:32.157Z,1985
2017-07-15T06:59:30.909Z,2005
2017-07-15T07:00:30.961Z,1955
2017-07-15T07:01:31.073Z,1935
2017-07-15T07:02:31.012Z,1980
2017-07-15T07:03:31.072Z,2145
2017-07-15T07:04:31.099Z,1075
2017-07-15T07:05:31.119Z,1695
2017-07-15T07:06:31.178Z,1125
2017-07-15T07:07:31.217Z,940
2017-07-15T07:08:31.263Z,895
2017-07-15T07:09:31.260Z,1840
2017-07-15T07:10:31.599Z,1735
2017-07-15T07:11:31.341Z,1870
2017-07-15T07:12:31.446Z,2135
2017-07-15T07:13:31.485Z,2160
2017-07-15T07:14:31.539Z,2165
2017-07-15T07:15:31.691Z,2145
2017-07-15T07:16:31.544Z,1730
2017-07-15T07:17:31.614Z,1565
2017-07-15T07:18:31.681Z,2180
2017-07-15T07:19:31.715Z,2240
2017-07-15T07:20:31.752Z,2330
2017-07-15T07:21:31.846Z,2295
2017-07-15T07:22:31.898Z,2315
2017-07-15T07:23:31.901Z,2375
2017-07-15T07:24:31.899Z,2320
2017-07-15T07:25:31.992Z,2300
2017-07-15T07:26:32.017Z,2285
2017-07-15T07:27:32.056Z,2300
2017-07-15T07:28:32.121Z,2200
2017-07-15T07:29:32.184Z,1615
2017-07-15T07:30:32.289Z,1465
2017-07-15T07:31:32.195Z,1285
2017-07-15T07:32:32.243Z,2070
2017-07-15T07:33:32.375Z,1955
2017-07-15T07:34:32.408Z,1310
2017-07-15T07:35:32.382Z,760
2017-07-15T07:36:32.446Z,860
2017-07-15T07:37:32.697Z,950
2017-07-15T07:38:32.525Z,1295
2017-07-15T07:39:32.599Z,1305
2017-07-15T07:40:32.641Z,1450
2017-07-15T07:41:32.745Z,1035
2017-07-15T07:42:32.753Z,1190
2017-07-15T07:43:32.806Z,1945
2017-07-15T07:44:32.804Z,1900
2017-07-15T07:45:32.841Z,2360
2017-07-15T07:46:32.948Z,1015
2017-07-15T07:47:32.947Z,2295
2017-07-15T07:48:32.991Z,2300
2017-07-15T07:49:32.963Z,2330
2017-07-15T07:50:33.072Z,2450
2017-07-15T07:51:33.393Z,2465
2017-07-15T07:52:33.139Z,1785
2017-07-15T07:53:33.187Z,975
2017-07-15T07:54:33.221Z,1040
2017-07-15T07:55:33.322Z,2275
2017-07-15T07:56:33.663Z,2395
2017-07-15T07:57:33.412Z,2435
2017-07-15T07:58:33.430Z,2430
2017-07-15T07:59:33.459Z,2345
2017-07-15T08:00:33.530Z,2290
2017-07-15T08:01:33.720Z,2195
2017-07-15T08:02:33.567Z,1370
2017-07-15T08:03:33.563Z,2315
2017-07-15T08:04:33.653Z,1070
2017-07-15T08:05:33.735Z,1985
2017-07-15T08:06:34.085Z,2525
2017-07-15T08:07:33.807Z,990
2017-07-15T08:08:33.866Z,870
2017-07-15T08:09:33.929Z,820
2017-07-15T08:10:33.995Z,1560
2017-07-15T08:11:34.031Z,1145
2017-07-15T08:12:34.012Z,1020
2017-07-15T08:13:34.057Z,2025
2017-07-15T08:14:34.095Z,905
2017-07-15T08:15:34.155Z,2455
2017-07-15T08:16:34.266Z,2460
2017-07-15T08:17:34.273Z,2505
2017-07-15T08:18:34.295Z,2490
2017-07-15T08:19:34.355Z,2580
2017-07-15T08:20:34.359Z,2430
2017-07-15T08:21:34.408Z,2455
2017-07-15T08:22:34.459Z,2530
2017-07-15T08:23:34.515Z,2505
2017-07-15T08:24:34.539Z,2560
2017-07-15T08:25:34.627Z,2680
2017-07-15T08:26:34.627Z,2490
2017-07-15T08:27:34.671Z,1025
2017-07-15T08:28:34.652Z,795
2017-07-15T08:29:35.017Z,790
2017-07-15T08:30:34.796Z,870
2017-07-15T08:31:34.836Z,2605
2017-07-15T08:32:35.170Z,2670
2017-07-15T08:33:34.960Z,2635
2017-07-15T08:34:35.022Z,2760
2017-07-15T08:35:35.042Z,2585
2017-07-15T08:36:35.033Z,1120
2017-07-15T08:37:35.071Z,2675
2017-07-15T08:38:35.188Z,1220
2017-07-15T08:39:35.195Z,1220
2017-07-15T08:40:35.265Z,2505
2017-07-15T08:41:35.325Z,1125
2017-07-15T08:42:35.320Z,1255
2017-07-15T08:43:35.378Z,1145
2017-07-15T08:44:35.427Z,1155
2017-07-15T08:45:35.479Z,1225
2017-07-15T08:46:35.491Z,1590
2017-07-15T08:47:35.571Z,1010
2017-07-15T08:48:35.629Z,930
2017-07-15T08:49:35.594Z,905
2017-07-15T08:50:35.710Z,1150
2017-07-15T08:51:35.744Z,840
2017-07-15T08:52:35.793Z,740
2017-07-15T08:53:35.800Z,765
2017-07-15T08:54:35.866Z,925
2017-07-15T08:55:35.907Z,1660
2017-07-15T08:56:36.008Z,1345
2017-07-15T08:57:36.017Z,2535
2017-07-15T08:58:36.069Z,2165
2017-07-15T08:59:36.125Z,2035
2017-07-15T09:00:36.131Z,1270
2017-07-15T09:01:36.164Z,1065
2017-07-15T09:02:36.225Z,1030
2017-07-15T09:03:36.190Z,995
2017-07-15T09:04:36.321Z,915
2017-07-15T09:05:36.375Z,1610
2017-07-15T09:06:36.387Z,995
2017-07-15T09:07:36.441Z,1170
2017-07-15T09:08:36.437Z,950
2017-07-15T09:09:36.501Z,920
2017-07-15T09:10:36.595Z,990
2017-07-15T09:11:36.545Z,1250
2017-07-15T09:12:36.570Z,2625
2017-07-15T09:13:36.645Z,3345
2017-07-15T09:14:36.726Z,1115
2017-07-15T09:15:36.729Z,3165
2017-07-15T09:16:36.810Z,3580
2017-07-15T09:17:36.803Z,1750
2017-07-15T09:18:36.875Z,1800
2017-07-15T09:19:36.880Z,3460
2017-07-15T09:20:37.260Z,2905
2017-07-15T09:21:37.004Z,1805
2017-07-15T09:22:37.026Z,985
2017-07-15T09:23:37.097Z,2000
2017-07-15T09:24:37.096Z,2615
2017-07-15T09:25:37.104Z,1840
2017-07-15T09:26:37.241Z,1760
2017-07-15T09:27:37.289Z,2605
2017-07-15T09:28:37.335Z,2810
2017-07-15T09:29:37.305Z,2855
2017-07-15T09:30:37.345Z,2815
2017-07-15T09:31:37.449Z,1940
2017-07-15T09:32:37.472Z,2260
2017-07-15T09:33:37.511Z,2485
2017-07-15T09:34:37.589Z,2840
2017-07-15T09:35:37.635Z,930
2017-07-15T09:36:37.641Z,815
2017-07-15T09:37:37.677Z,725
2017-07-15T09:38:37.782Z,685
2017-07-15T09:39:37.780Z,980
2017-07-15T09:40:37.753Z,680
2017-07-15T09:41:37.855Z,710
2017-07-15T09:42:37.894Z,815
2017-07-15T09:43:37.996Z,1355
2017-07-15T09:44:38.034Z,1040
2017-07-15T09:45:38.039Z,1690
2017-07-15T09:46:38.093Z,1970
2017-07-15T09:47:38.094Z,2025
2017-07-15T09:48:38.231Z,2080
2017-07-15T09:49:38.202Z,2090
2017-07-15T09:50:38.269Z,2105
2017-07-15T09:51:38.452Z,2335
2017-07-15T09:52:38.336Z,2435
2017-07-15T09:53:38.433Z,2495
2017-07-15T09:54:38.421Z,2510
2017-07-15T09:55:38.452Z,1095
2017-07-15T09:56:38.719Z,1215
2017-07-15T09:57:38.610Z,2760
2017-07-15T09:58:38.669Z,2810
2017-07-15T09:59:38.675Z,3045
2017-07-15T10:00:38.710Z,2975
2017-07-15T10:01:38.762Z,2880
2017-07-15T10:02:38.868Z,2810
2017-07-15T10:03:38.864Z,2665
2017-07-15T10:04:38.929Z,2590
2017-07-15T10:05:38.959Z,2500
2017-07-15T10:06:39.161Z,1390
2017-07-15T10:07:39.051Z,2120
2017-07-15T10:08:39.173Z,1745
2017-07-15T10:09:39.179Z,945
2017-07-15T10:10:39.203Z,690
2017-07-15T10:11:39.298Z,670
2017-07-15T10:12:39.308Z,720
2017-07-15T10:13:39.329Z,790
2017-07-15T10:14:39.387Z,1065
2017-07-15T10:15:39.428Z,1130
2017-07-15T10:16:39.437Z,1620
2017-07-15T10:17:39.512Z,1005
2017-07-15T10:18:39.558Z,2550
2017-07-15T10:19:39.544Z,1095
2017-07-15T10:20:39.631Z,3075
2017-07-15T10:21:39.664Z,840
2017-07-15T10:22:39.736Z,845
2017-07-15T10:23:39.779Z,1100
2017-07-15T10:24:39.806Z,2930
2017-07-15T10:25:39.859Z,1190
2017-07-15T10:26:39.951Z,2940
2017-07-15T10:27:39.885Z,2985
2017-07-15T10:28:39.990Z,2910
2017-07-15T10:29:40.051Z,2935
2017-07-15T10:30:40.040Z,2920
2017-07-15T10:31:40.130Z,2830
2017-07-15T10:32:40.207Z,2800
2017-07-15T10:33:40.236Z,2945
2017-07-15T10:34:40.260Z,2980
2017-07-15T10:35:40.255Z,2860
2017-07-15T10:36:40.347Z,2770
2017-07-15T10:37:40.453Z,2760
2017-07-15T10:38:40.410Z,2120
2017-07-15T10:39:40.423Z,1175
2017-07-15T10:40:40.543Z,915
2017-07-15T10:41:40.563Z,850
2017-07-15T10:42:40.582Z,845
2017-07-15T10:43:40.672Z,1250
2017-07-15T10:44:40.670Z,1040
2017-07-15T10:45:40.749Z,1375
2017-07-15T10:46:40.718Z,1835
2017-07-15T10:47:40.926Z,1090
2017-07-15T10:48:40.854Z,1070
2017-07-15T10:49:40.843Z,760
2017-07-15T10:50:40.953Z,670
2017-07-15T10:51:40.958Z,635
2017-07-15T10:52:41.243Z,600
2017-07-15T10:53:41.074Z,575
2017-07-15T10:54:41.098Z,575
2017-07-15T10:55:41.129Z,560
2017-07-15T10:56:41.183Z,560
2017-07-15T10:57:41.282Z,560
2017-07-15T10:58:41.247Z,550
2017-07-15T10:59:41.380Z,530
2017-07-15T11:00:41.317Z,530
2017-07-15T11:01:41.428Z,575
2017-07-15T11:02:41.755Z,755
2017-07-15T11:03:41.465Z,795
2017-07-15T11:04:41.473Z,915
2017-07-15T11:05:41.529Z,1145
2017-07-15T11:06:41.639Z,720
2017-07-15T11:07:41.620Z,755
2017-07-15T11:08:41.690Z,1510
2017-07-15T11:09:41.700Z,1485
2017-07-15T11:10:41.787Z,2890
2017-07-15T11:11:41.822Z,2145
2017-07-15T11:12:41.884Z,1345
2017-07-15T11:13:41.927Z,1175
2017-07-15T11:14:41.934Z,1055
2017-07-15T11:15:41.981Z,930
2017-07-15T11:16:42.027Z,940
2017-07-15T11:17:42.058Z,910
2017-07-15T11:18:42.106Z,920
2017-07-15T11:19:42.178Z,965
2017-07-15T11:20:42.165Z,970
2017-07-15T11:21:42.201Z,935
2017-07-15T11:22:42.219Z,880
2017-07-15T11:23:42.295Z,825
2017-07-15T11:24:42.349Z,810
2017-07-15T11:25:42.406Z,835
2017-07-15T11:26:42.447Z,830
2017-07-15T11:27:42.430Z,830
2017-07-15T11:28:42.530Z,830
2017-07-15T11:29:42.546Z,855
2017-07-15T11:30:42.609Z,925
2017-07-15T11:31:42.568Z,950
2017-07-15T11:32:42.632Z,965
2017-07-15T11:33:42.764Z,965
2017-07-15T11:34:42.748Z,940
2017-07-15T11:35:42.804Z,865
2017-07-15T11:36:42.821Z,880
2017-07-15T11:37:42.879Z,895
2017-07-15T11:38:42.904Z,875
2017-07-15T11:39:42.920Z,865
2017-07-15T11:40:42.936Z,800
2017-07-15T11:41:43.034Z,750
2017-07-15T11:42:43.034Z,715
2017-07-15T11:43:43.117Z,695
2017-07-15T11:44:43.157Z,710
2017-07-15T11:45:43.267Z,680
2017-07-15T11:46:43.178Z,670
2017-07-15T11:47:43.269Z,645
2017-07-15T11:48:43.287Z,640
2017-07-15T11:49:43.370Z,650
2017-07-15T11:50:43.348Z,670
2017-07-15T11:51:43.400Z,635
2017-07-15T11:52:43.434Z,635
2017-07-15T11:53:43.530Z,630
2017-07-15T11:54:43.538Z,630
2017-07-15T11:55:43.581Z,650
2017-07-15T11:56:43.578Z,655
2017-07-15T11:57:43.645Z,660
2017-07-15T11:58:43.668Z,640
2017-07-15T11:59:43.766Z,640
2017-07-15T12:00:43.789Z,645
2017-07-15T12:01:43.855Z,615
2017-07-15T12:02:43.849Z,600
2017-07-15T12:03:43.897Z,595
2017-07-15T12:04:43.974Z,605
2017-07-15T12:05:43.954Z,610
2017-07-15T12:06:44.056Z,630
2017-07-15T12:07:44.029Z,630
2017-07-15T12:08:44.061Z,610
2017-07-15T12:09:44.179Z,565
2017-07-15T12:10:44.203Z,535
2017-07-15T12:11:44.194Z,520
2017-07-15T12:12:44.264Z,515
2017-07-15T12:13:44.351Z,500
2017-07-15T12:14:44.354Z,490
2017-07-15T12:15:44.387Z,510
2017-07-15T12:16:44.410Z,520
2017-07-15T12:17:44.431Z,505
2017-07-15T12:18:44.518Z,455
2017-07-15T12:19:44.546Z,430
2017-07-15T12:20:44.531Z,430
2017-07-15T12:21:44.668Z,435
2017-07-15T12:22:44.584Z,415
2017-07-15T12:23:44.661Z,395
2017-07-15T12:24:44.746Z,400
2017-07-15T12:25:44.759Z,390
2017-07-15T12:26:44.761Z,405
2017-07-15T12:27:44.873Z,395
2017-07-15T12:28:44.867Z,380
2017-07-15T12:29:44.905Z,375
2017-07-15T12:30:44.928Z,375
2017-07-15T12:31:44.981Z,375
2017-07-15T12:32:45.044Z,335
2017-07-15T12:33:45.093Z,330
2017-07-15T12:34:45.125Z,325
2017-07-15T12:35:45.138Z,320
2017-07-15T12:36:45.166Z,310
2017-07-15T12:37:45.177Z,285
2017-07-15T12:38:45.283Z,295
2017-07-15T12:39:45.351Z,305
2017-07-15T12:40:45.329Z,290
2017-07-15T12:41:45.381Z,290
2017-07-15T12:42:45.475Z,285
2017-07-15T12:43:45.469Z,280
2017-07-15T12:44:45.428Z,275
2017-07-15T12:45:45.591Z,270
2017-07-15T12:46:45.573Z,275
2017-07-15T12:47:45.658Z,280
2017-07-15T12:48:45.665Z,275
2017-07-15T12:49:45.724Z,280
2017-07-15T12:50:45.770Z,285
2017-07-15T12:51:45.788Z,285
2017-07-15T12:52:45.778Z,285
2017-07-15T12:53:45.830Z,285
2017-07-15T12:54:45.886Z,280
2017-07-15T12:55:45.865Z,275
2017-07-15T12:56:45.986Z,265
2017-07-15T12:57:45.938Z,265
2017-07-15T12:58:46.030Z,260
2017-07-15T12:59:46.085Z,260
2017-07-15T13:00:46.054Z,260
2017-07-15T13:01:46.148Z,260
2017-07-15T13:02:46.189Z,255
2017-07-15T13:03:46.202Z,260
2017-07-15T13:04:46.288Z,260
2017-07-15T13:05:46.284Z,265
2017-07-15T13:06:46.388Z,260
2017-07-15T13:07:46.328Z,255
2017-07-15T13:08:46.397Z,260
2017-07-15T13:09:46.469Z,245
2017-07-15T13:10:46.503Z,250
2017-07-15T13:11:46.565Z,260
2017-07-15T13:12:46.595Z,245
2017-07-15T13:13:46.587Z,230
2017-07-15T13:14:46.633Z,225
2017-07-15T13:15:46.647Z,225
2017-07-15T13:16:46.676Z,225
2017-07-15T13:17:46.776Z,225
2017-07-15T13:18:46.729Z,220
2017-07-15T13:19:46.875Z,225
2017-07-15T13:20:46.847Z,230
2017-07-15T13:21:46.922Z,230
2017-07-15T13:22:46.947Z,225
2017-07-15T13:23:46.941Z,225
2017-07-15T13:24:46.964Z,225
2017-07-15T13:25:47.029Z,225
2017-07-15T13:26:47.040Z,225
2017-07-15T13:27:47.178Z,220
2017-07-15T13:28:47.150Z,215
2017-07-15T13:29:47.181Z,215
2017-07-15T13:30:47.229Z,220
2017-07-15T13:31:47.226Z,220
2017-07-15T13:32:47.270Z,225
2017-07-15T13:33:47.428Z,225
2017-07-15T13:34:47.388Z,225
2017-07-15T13:35:47.384Z,235
2017-07-15T13:36:47.435Z,255
2017-07-15T13:37:47.489Z,265
2017-07-15T13:38:47.469Z,290
2017-07-15T13:39:47.579Z,260
2017-07-15T13:40:47.599Z,240
2017-07-15T13:41:47.600Z,240
2017-07-15T13:42:47.650Z,235
2017-07-15T13:43:47.678Z,220
2017-07-15T13:44:47.717Z,230
2017-07-15T13:45:47.766Z,230
2017-07-15T13:46:47.846Z,225
2017-07-15T13:47:47.873Z,225
2017-07-15T13:48:47.844Z,215
2017-07-15T13:49:47.911Z,220
2017-07-15T13:50:47.912Z,215
2017-07-15T13:51:48.025Z,215
2017-07-15T13:52:48.029Z,210